createdAt,value
2019-03-24T00:00:59.895Z,93.18
2019-03-24T00:02:00.385Z,93.08
2019-03-24T00:03:00.873Z,92.89
2019-03-24T00:04:02.213Z,93.08
2019-03-24T00:05:02.736Z,93.08
2019-03-24T00:06:03.506Z,93.65
2019-03-24T00:07:04.002Z,93.55
2019-03-24T00:08:04.209Z,93.55
2019-03-24T00:09:05.310Z,93.65
2019-03-24T00:10:06.276Z,93.37
2019-03-24T00:11:06.758Z,93.27
2019-03-24T00:12:07.243Z,93.55
2019-03-24T00:13:08.004Z,93.18
2019-03-24T00:14:08.766Z,93.75
2019-03-24T00:15:08.971Z,93.27
2019-03-24T00:16:09.738Z,93.55
2019-03-24T00:17:10.504Z,94.13
2019-03-24T00:18:11.542Z,94.03
2019-03-24T00:19:12.308Z,94.32
2019-03-24T00:20:13.074Z,94.37
2019-03-24T00:21:13.850Z,94.93
2019-03-24T00:22:14.611Z,94.84
2019-03-24T00:23:15.677Z,95.79
2019-03-24T00:24:16.162Z,95.89
2019-03-24T00:25:16.663Z,95.12
2019-03-24T00:26:17.150Z,95.51
2019-03-24T00:27:18.471Z,95.7
2019-03-24T00:28:19.239Z,95.89
2019-03-24T00:29:20.005Z,95.41
2019-03-24T00:30:20.391Z,95.12
2019-03-24T00:31:20.994Z,95.89
2019-03-24T00:32:21.755Z,95.89
2019-03-24T00:33:21.960Z,95.41
2019-03-24T00:34:22.441Z,95.79
2019-03-24T00:35:22.940Z,95.79
2019-03-24T00:36:23.980Z,95.7
2019-03-24T00:37:24.187Z,95.89
2019-03-24T00:38:24.949Z,96.26
2019-03-24T00:39:25.800Z,96.55
2019-03-24T00:40:26.587Z,96.55
2019-03-24T00:41:27.068Z,96.93
2019-03-24T00:42:27.590Z,96.45
2019-03-24T00:43:28.075Z,96.74
2019-03-24T00:44:28.561Z,96.84
2019-03-24T00:45:39.101Z,96.5
2019-03-24T00:46:40.063Z,97.41
2019-03-24T00:47:40.277Z,96.93
2019-03-24T00:48:41.043Z,96.93
2019-03-24T00:49:41.529Z,97.12
2019-03-24T00:50:42.014Z,96.45
2019-03-24T00:51:42.512Z,96.45
2019-03-24T00:52:43.001Z,97.12
2019-03-24T00:53:43.778Z,97.22
2019-03-24T00:54:44.539Z,96.93
2019-03-24T00:55:45.033Z,96.36
2019-03-24T00:56:45.833Z,96.55
2019-03-24T00:57:46.603Z,96.74
2019-03-24T00:58:48.199Z,96.55
2019-03-24T00:59:48.723Z,97.22
2019-03-24T01:00:49.775Z,97.12
2019-03-24T01:01:50.409Z,96.55
2019-03-24T01:02:50.889Z,96.55
2019-03-24T01:03:51.927Z,97.12
2019-03-24T01:04:52.433Z,96.45
2019-03-24T01:05:53.212Z,97.22
2019-03-24T01:06:53.864Z,97.12
2019-03-24T01:07:54.622Z,97.22
2019-03-24T01:08:54.868Z,97.22
2019-03-24T01:09:55.635Z,97.22
2019-03-24T01:10:56.000Z,97.03
2019-03-24T01:11:57.323Z,97.31
2019-03-24T01:12:57.846Z,96.84
2019-03-24T01:13:58.894Z,97.31
2019-03-24T01:14:59.381Z,97.6
2019-03-24T01:16:00.423Z,96.93
2019-03-24T01:17:00.642Z,96.65
2019-03-24T01:18:00.858Z,97.22
2019-03-24T01:19:02.005Z,97.22
2019-03-24T01:20:03.048Z,97.45
2019-03-24T01:21:03.549Z,96.93
2019-03-24T01:22:04.043Z,97.07
2019-03-24T01:23:04.096Z,97.07
2019-03-24T01:24:04.305Z,97.22
2019-03-24T01:25:04.640Z,97.55
2019-03-24T01:26:05.173Z,97.36
2019-03-24T01:27:06.119Z,97.27
2019-03-24T01:28:06.889Z,97.45
2019-03-24T01:29:07.103Z,97.45
2019-03-24T01:30:07.584Z,97.64
2019-03-24T01:31:08.345Z,98.12
2019-03-24T01:32:08.830Z,97.92
2019-03-24T01:33:09.879Z,97.92
2019-03-24T01:34:10.366Z,97.36
2019-03-24T01:35:11.130Z,97.17
2019-03-24T01:36:11.612Z,97.27
2019-03-24T01:37:12.141Z,97.36
2019-03-24T01:38:12.346Z,97.45
2019-03-24T01:39:12.834Z,97.55
2019-03-24T01:40:13.324Z,97.55
2019-03-24T01:41:13.815Z,98.02
2019-03-24T01:42:14.302Z,98.31
2019-03-24T01:43:14.789Z,97.74
2019-03-24T01:44:15.831Z,97.92
2019-03-24T01:45:16.427Z,98.02
2019-03-24T01:46:16.911Z,98.21
2019-03-24T01:47:17.557Z,98.59
2019-03-24T01:48:17.757Z,98.31
2019-03-24T01:49:18.240Z,98.4
2019-03-24T01:50:18.720Z,97.74
2019-03-24T01:51:18.958Z,98.4
2019-03-24T01:52:19.450Z,97.64
2019-03-24T01:53:19.929Z,98.21
2019-03-24T01:54:20.133Z,98.21
2019-03-24T01:55:20.616Z,98.31
2019-03-24T01:56:21.099Z,98.5
2019-03-24T01:57:22.315Z,98.5
2019-03-24T01:58:22.800Z,98.21
2019-03-24T01:59:23.051Z,98.4
2019-03-24T02:00:23.266Z,98.69
2019-03-24T02:01:23.752Z,98.31
2019-03-24T02:02:24.237Z,98.5
2019-03-24T02:03:24.994Z,98.88
2019-03-24T02:04:25.206Z,98.79
2019-03-24T02:05:25.970Z,98.31
2019-03-24T02:06:26.731Z,98.21
2019-03-24T02:07:27.709Z,98.5
2019-03-24T02:08:28.209Z,99.16
2019-03-24T02:09:29.247Z,98.88
2019-03-24T02:10:29.728Z,98.31
2019-03-24T02:11:30.211Z,98.88
2019-03-24T02:12:30.533Z,98.4
2019-03-24T02:13:31.904Z,98.69
2019-03-24T02:14:32.670Z,98.79
2019-03-24T02:15:33.719Z,98.88
2019-03-24T02:16:34.481Z,98.59
2019-03-24T02:17:35.141Z,98.59
2019-03-24T02:18:35.629Z,98.59
2019-03-24T02:19:36.668Z,98.79
2019-03-24T02:20:37.710Z,98.21
2019-03-24T02:21:37.919Z,98.88
2019-03-24T02:22:38.958Z,98.79
2019-03-24T02:23:39.448Z,99.07
2019-03-24T02:24:39.965Z,99.26
2019-03-24T02:25:40.451Z,99.07
2019-03-24T02:26:40.937Z,99.21
2019-03-24T02:27:41.192Z,99.02
2019-03-24T02:28:41.687Z,99.3
2019-03-24T02:29:42.292Z,99.54
2019-03-24T02:30:43.171Z,99.16
2019-03-24T02:31:43.670Z,99.35
2019-03-24T02:32:44.835Z,99.35
2019-03-24T02:33:45.602Z,98.97
2019-03-24T02:34:46.514Z,99.35
2019-03-24T02:35:47.881Z,99.44
2019-03-24T02:36:48.516Z,99.54
2019-03-24T02:37:49.341Z,99.49
2019-03-24T02:38:51.260Z,98.83
2019-03-24T02:39:51.326Z,99.26
2019-03-24T02:40:52.429Z,99.26
2019-03-24T02:41:53.618Z,99.73
2019-03-24T02:42:54.165Z,99.07
2019-03-24T02:43:54.444Z,99.16
2019-03-24T02:44:55.056Z,98.97
2019-03-24T02:45:56.666Z,99.35
2019-03-24T02:46:56.451Z,98.69
2019-03-24T02:47:57.048Z,98.59
2019-03-24T02:48:57.583Z,99.26
2019-03-24T02:49:58.642Z,99.26
2019-03-24T02:50:59.372Z,98.69
2019-03-24T02:52:00.409Z,99.54
2019-03-24T02:53:01.488Z,99.35
2019-03-24T02:54:02.448Z,98.79
2019-03-24T02:55:03.328Z,99.26
2019-03-24T02:56:03.978Z,98.69
2019-03-24T02:57:04.861Z,99.44
2019-03-24T02:58:05.719Z,99.26
2019-03-24T02:59:06.609Z,99.02
2019-03-24T03:00:07.448Z,99.4
2019-03-24T03:01:08.869Z,99.58
2019-03-24T03:02:09.205Z,99.58
2019-03-24T03:03:09.843Z,99.49
2019-03-24T03:04:10.173Z,99.68
2019-03-24T03:05:11.261Z,99.49
2019-03-24T03:06:11.620Z,99.97
2019-03-24T03:07:12.952Z,99.87
2019-03-24T03:08:13.767Z,99.99
2019-03-24T03:09:14.317Z,99.68
2019-03-24T03:10:15.639Z,99.99
2019-03-24T03:11:17.095Z,99.77
2019-03-24T03:12:17.706Z,99.99
2019-03-24T03:13:18.092Z,99.77
2019-03-24T03:14:19.165Z,99.99
2019-03-24T03:15:20.587Z,99.87
2019-03-24T03:16:21.349Z,99.99
2019-03-24T03:16:42.555Z,99.87
2019-03-24T03:17:42.916Z,99.99
2019-03-24T03:18:43.715Z,99.77
2019-03-24T03:19:45.372Z,99.68
2019-03-24T03:20:46.312Z,99.99
2019-03-24T03:21:47.237Z,99.99
2019-03-24T03:22:47.607Z,99.68
2019-03-24T03:23:47.651Z,99.99
2019-03-24T03:24:48.993Z,99.99
2019-03-24T03:25:49.631Z,99.77
2019-03-24T03:26:50.264Z,99.87
2019-03-24T03:27:51.042Z,99.97
2019-03-24T03:28:51.869Z,99.97
2019-03-24T03:29:52.795Z,99.99
2019-03-24T03:30:53.437Z,99.99
2019-03-24T03:31:53.645Z,99.99
2019-03-24T03:32:54.987Z,99.99
2019-03-24T03:33:56.024Z,99.87
2019-03-24T03:34:56.775Z,99.87
2019-03-24T03:35:57.505Z,99.99
2019-03-24T03:36:58.974Z,99.99
2019-03-24T03:37:59.454Z,99.99
2019-03-24T03:38:59.567Z,99.68
2019-03-24T03:40:01.152Z,99.99
2019-03-24T03:41:01.369Z,99.99
2019-03-24T03:42:02.454Z,99.99
2019-03-24T03:43:04.132Z,99.99
2019-03-24T03:44:04.470Z,99.99
2019-03-24T03:45:05.607Z,99.99
2019-03-24T03:46:06.502Z,99.99
2019-03-24T03:47:07.377Z,99.99
2019-03-24T03:48:07.863Z,99.99
2019-03-24T03:49:08.505Z,99.99
2019-03-24T03:50:09.124Z,99.99
2019-03-24T03:51:09.521Z,99.99
2019-03-24T03:52:10.571Z,99.99
2019-03-24T03:53:11.941Z,99.99
2019-03-24T03:54:12.274Z,99.99
2019-03-24T03:55:13.212Z,99.99
2019-03-24T03:56:13.831Z,99.99
2019-03-24T03:57:14.148Z,99.99
2019-03-24T03:58:14.854Z,99.99
2019-03-24T03:59:15.477Z,99.99
2019-03-24T04:00:16.654Z,99.99
2019-03-24T04:01:17.584Z,99.99
2019-03-24T04:02:18.316Z,99.99
2019-03-24T04:03:18.969Z,99.99
2019-03-24T04:04:19.300Z,99.99
2019-03-24T04:05:20.653Z,99.99
2019-03-24T04:06:21.571Z,99.99
2019-03-24T04:07:21.918Z,99.99
2019-03-24T04:08:23.194Z,99.99
2019-03-24T04:09:23.548Z,99.99
2019-03-24T04:10:23.883Z,99.99
2019-03-24T04:11:24.585Z,99.99
2019-03-24T04:12:25.214Z,99.99
2019-03-24T04:13:25.707Z,99.99
2019-03-24T04:14:26.617Z,99.99
2019-03-24T04:15:27.249Z,99.99
2019-03-24T04:16:27.308Z,99.99
2019-03-24T04:17:27.811Z,99.99
2019-03-24T04:18:29.292Z,99.99
2019-03-24T04:19:29.922Z,99.99
2019-03-24T04:20:30.973Z,99.99
2019-03-24T04:21:31.575Z,99.99
2019-03-24T04:22:31.933Z,99.99
2019-03-24T04:23:32.756Z,99.99
2019-03-24T04:24:33.846Z,99.99
2019-03-24T04:25:34.955Z,99.99
2019-03-24T04:26:35.878Z,99.99
2019-03-24T04:27:36.692Z,99.99
2019-03-24T04:28:37.043Z,99.99
2019-03-24T04:29:38.217Z,99.99
2019-03-24T04:30:38.884Z,99.99
2019-03-24T04:31:39.929Z,99.99
2019-03-24T04:32:41.274Z,99.99
2019-03-24T04:33:42.037Z,99.99
2019-03-24T04:34:43.317Z,99.99
2019-03-24T04:35:43.664Z,99.99
2019-03-24T04:36:44.696Z,99.99
2019-03-24T04:37:45.458Z,99.99
2019-03-24T04:38:46.293Z,99.99
2019-03-24T04:39:47.402Z,99.99
2019-03-24T04:40:48.721Z,99.99
2019-03-24T04:41:48.807Z,99.99
2019-03-24T04:42:49.729Z,99.99
2019-03-24T04:43:50.785Z,99.99
2019-03-24T04:44:51.272Z,99.99
2019-03-24T04:45:52.313Z,99.99
2019-03-24T04:46:52.517Z,99.99
2019-03-24T04:47:53.002Z,99.99
2019-03-24T04:48:53.656Z,99.99
2019-03-24T04:49:54.142Z,99.99
2019-03-24T04:50:55.177Z,99.99
2019-03-24T04:51:55.524Z,99.99
2019-03-24T04:52:56.037Z,99.99
2019-03-24T04:53:56.797Z,99.99
2019-03-24T04:54:57.277Z,99.99
2019-03-24T04:55:58.323Z,99.99
2019-03-24T04:56:58.811Z,99.99
2019-03-24T04:57:59.583Z,99.99
2019-03-24T04:58:59.549Z,99.99
2019-03-24T05:00:00.032Z,99.99
2019-03-24T05:01:00.746Z,99.99
2019-03-24T05:02:01.518Z,99.99
2019-03-24T05:03:02.121Z,99.99
2019-03-24T05:04:02.910Z,99.99
2019-03-24T05:05:03.687Z,99.99
2019-03-24T05:06:04.275Z,99.99
2019-03-24T05:07:05.042Z,99.99
2019-03-24T05:08:05.539Z,99.99
2019-03-24T05:09:06.752Z,99.99
2019-03-24T05:10:06.955Z,99.99
2019-03-24T05:11:07.715Z,99.99
2019-03-24T05:12:08.514Z,99.99
2019-03-24T05:13:09.552Z,99.99
2019-03-24T05:14:10.028Z,99.99
2019-03-24T05:15:10.790Z,99.99
2019-03-24T05:16:11.274Z,99.99
2019-03-24T05:17:11.769Z,99.99
2019-03-24T05:18:12.530Z,99.99
2019-03-24T05:19:13.029Z,99.99
2019-03-24T05:20:13.539Z,99.99
2019-03-24T05:21:14.576Z,99.99
2019-03-24T05:22:15.893Z,99.99
2019-03-24T05:23:16.105Z,99.99
2019-03-24T05:24:17.144Z,99.99
2019-03-24T05:25:17.923Z,99.99
2019-03-24T05:26:18.690Z,99.99
2019-03-24T05:27:19.212Z,99.99
2019-03-24T05:28:19.414Z,99.99
2019-03-24T05:29:20.341Z,99.99
2019-03-24T05:30:20.822Z,99.99
2019-03-24T05:31:21.584Z,99.99
2019-03-24T05:32:21.790Z,99.99
2019-03-24T05:33:22.270Z,99.99
2019-03-24T05:34:23.032Z,99.99
2019-03-24T05:35:23.836Z,99.99
2019-03-24T05:36:24.315Z,99.99
2019-03-24T05:37:24.798Z,99.99
2019-03-24T05:38:25.004Z,99.99
2019-03-24T05:39:26.243Z,99.99
2019-03-24T05:40:26.446Z,99.99
2019-03-24T05:41:26.649Z,99.99
2019-03-24T05:42:27.432Z,99.99
2019-03-24T05:43:27.912Z,99.99
2019-03-24T05:44:28.116Z,99.99
2019-03-24T05:45:28.319Z,99.99
2019-03-24T05:46:28.527Z,99.99
2019-03-24T05:47:39.090Z,99.99
2019-03-24T05:48:40.064Z,99.99
2019-03-24T05:49:40.555Z,99.99
2019-03-24T05:50:41.324Z,99.99
2019-03-24T05:51:42.091Z,99.99
2019-03-24T05:52:42.574Z,99.99
2019-03-24T05:53:43.343Z,99.99
2019-03-24T05:54:44.407Z,99.99
2019-03-24T05:55:45.171Z,99.99
2019-03-24T05:56:45.376Z,99.99
2019-03-24T05:57:45.866Z,99.99
2019-03-24T05:58:46.172Z,99.99
2019-03-24T05:59:46.656Z,99.99
2019-03-24T06:00:47.144Z,99.99
2019-03-24T06:01:48.269Z,99.99
2019-03-24T06:02:48.752Z,99.99
2019-03-24T06:03:48.952Z,99.99
2019-03-24T06:04:49.434Z,99.99
2019-03-24T06:05:50.481Z,99.99
2019-03-24T06:06:50.964Z,99.99
2019-03-24T06:07:51.279Z,99.99
2019-03-24T06:08:52.254Z,99.99
2019-03-24T06:09:53.017Z,99.99
2019-03-24T06:10:54.065Z,99.99
2019-03-24T06:11:54.103Z,99.99
2019-03-24T06:12:54.582Z,99.99
2019-03-24T06:13:55.067Z,99.99
2019-03-24T06:14:56.669Z,99.99
2019-03-24T06:15:57.442Z,99.02
2019-03-24T06:16:57.928Z,94.32
2019-03-24T06:17:58.695Z,91.03
2019-03-24T06:18:59.516Z,86.9
2019-03-24T06:20:00.007Z,80.08
2019-03-24T06:21:00.421Z,75.07
2019-03-24T06:22:01.192Z,71.48
2019-03-24T06:23:01.514Z,65.8
2019-03-24T06:24:02.003Z,63.54
2019-03-24T06:25:03.168Z,60.71
2019-03-24T06:26:03.580Z,58.8
2019-03-24T06:27:04.797Z,57.59
2019-03-24T06:28:05.579Z,55.77
2019-03-24T06:29:06.530Z,55.13
2019-03-24T06:30:07.024Z,53.82
2019-03-24T06:31:07.522Z,51.65
2019-03-24T06:32:08.041Z,49.64
2019-03-24T06:33:09.095Z,48.42
2019-03-24T06:34:09.592Z,47.13
2019-03-24T06:35:10.407Z,46.94
2019-03-24T06:36:10.943Z,45.72
2019-03-24T06:37:11.163Z,44.59
2019-03-24T06:38:12.223Z,43.73
2019-03-24T06:39:12.467Z,44.11
2019-03-24T06:40:12.993Z,44.66
2019-03-24T06:41:13.766Z,44.76
2019-03-24T06:42:14.818Z,44.47
2019-03-24T06:43:14.868Z,43.9
2019-03-24T06:44:15.098Z,43.34
2019-03-24T06:45:15.629Z,42.47
2019-03-24T06:46:16.127Z,42.02
2019-03-24T06:47:16.646Z,41.44
2019-03-24T06:48:17.151Z,40.89
2019-03-24T06:49:17.375Z,39.95
2019-03-24T06:50:18.474Z,39.18
2019-03-24T06:51:19.254Z,38.53
2019-03-24T06:52:20.312Z,37.68
2019-03-24T06:53:21.095Z,37.39
2019-03-24T06:54:21.870Z,37.3
2019-03-24T06:55:23.233Z,36.93
2019-03-24T06:56:23.741Z,36.93
2019-03-24T06:57:24.520Z,36.54
2019-03-24T06:58:25.575Z,36.25
2019-03-24T06:59:26.816Z,36.54
2019-03-24T07:00:27.315Z,36.25
2019-03-24T07:01:27.840Z,35.77
2019-03-24T07:02:28.339Z,35.79
2019-03-24T07:03:28.837Z,35.41
2019-03-24T07:04:29.638Z,35.22
2019-03-24T07:05:30.140Z,35.6
2019-03-24T07:06:30.915Z,35.7
2019-03-24T07:07:31.657Z,36.08
2019-03-24T07:08:32.431Z,36.35
2019-03-24T07:09:33.151Z,37.87
2019-03-24T07:10:34.209Z,37.59
2019-03-24T07:11:34.714Z,37.2
2019-03-24T07:12:34.938Z,37.02
2019-03-24T07:13:35.170Z,36.54
2019-03-24T07:14:36.234Z,37.12
2019-03-24T07:15:37.593Z,36.93
2019-03-24T07:16:38.371Z,37.24
2019-03-24T07:17:38.869Z,36.85
2019-03-24T07:18:39.095Z,37.34
2019-03-24T07:19:40.338Z,36.85
2019-03-24T07:20:41.119Z,37.34
2019-03-24T07:21:41.909Z,37.72
2019-03-24T07:22:42.696Z,36.66
2019-03-24T07:23:42.914Z,36.39
2019-03-24T07:24:43.979Z,35.81
2019-03-24T07:25:44.476Z,36.19
2019-03-24T07:26:44.703Z,36.56
2019-03-24T07:27:45.211Z,36.56
2019-03-24T07:28:45.436Z,36.76
2019-03-24T07:29:46.144Z,37.54
2019-03-24T07:30:46.649Z,37.43
2019-03-24T07:31:46.984Z,36.95
2019-03-24T07:32:47.771Z,36.56
2019-03-24T07:33:47.997Z,37.12
2019-03-24T07:34:48.490Z,37.22
2019-03-24T07:35:49.279Z,37.51
2019-03-24T07:36:49.503Z,37.12
2019-03-24T07:37:50.035Z,37.87
2019-03-24T07:38:51.090Z,37.39
2019-03-24T07:39:51.062Z,38.07
2019-03-24T07:40:51.560Z,38.53
2019-03-24T07:41:52.347Z,38.04
2019-03-24T07:42:53.405Z,38.07
2019-03-24T07:43:54.179Z,37.41
2019-03-24T07:44:54.957Z,37.32
2019-03-24T07:45:55.456Z,37.43
2019-03-24T07:46:55.674Z,36.76
2019-03-24T07:47:55.900Z,36.85
2019-03-24T07:48:56.401Z,36.47
2019-03-24T07:49:56.962Z,36.95
2019-03-24T07:50:57.227Z,37.91
2019-03-24T07:51:57.453Z,36.85
2019-03-24T07:52:58.229Z,35.71
2019-03-24T07:53:58.729Z,35.06
2019-03-24T07:54:59.231Z,34.59
2019-03-24T07:55:59.739Z,35.27
2019-03-24T07:57:00.248Z,35.17
2019-03-24T07:58:00.475Z,35.73
2019-03-24T07:59:01.259Z,36.11
2019-03-24T08:00:01.803Z,36.51
2019-03-24T08:01:03.210Z,36.99
2019-03-24T08:02:03.713Z,36.11
2019-03-24T08:03:04.237Z,35.16
2019-03-24T08:04:07.045Z,35.35
2019-03-24T08:05:07.828Z,34.69
2019-03-24T08:06:08.327Z,35.25
2019-03-24T08:07:09.108Z,35.06
2019-03-24T08:08:10.169Z,36.02
2019-03-24T08:09:10.693Z,35.64
2019-03-24T08:10:11.654Z,36.51
2019-03-24T08:11:12.443Z,36.41
2019-03-24T08:12:12.703Z,35.83
2019-03-24T08:13:13.483Z,35.93
2019-03-24T08:14:14.275Z,35.85
2019-03-24T08:15:14.822Z,35.64
2019-03-24T08:16:15.334Z,35.16
2019-03-24T08:17:15.597Z,35.08
2019-03-24T08:18:16.113Z,34.69
2019-03-24T08:19:17.184Z,34.98
2019-03-24T08:20:18.023Z,36.04
2019-03-24T08:21:18.802Z,36.91
2019-03-24T08:22:19.306Z,35.27
2019-03-24T08:23:20.085Z,35.17
2019-03-24T08:24:20.312Z,35.94
2019-03-24T08:25:20.816Z,35.27
2019-03-24T08:26:21.326Z,34.5
2019-03-24T08:27:22.944Z,34.78
2019-03-24T08:28:24.308Z,34.9
2019-03-24T08:29:25.372Z,34.7
2019-03-24T08:30:27.896Z,35.28
2019-03-24T08:31:26.294Z,34.32
2019-03-24T08:32:27.069Z,34.5
2019-03-24T08:33:27.567Z,35.56
2019-03-24T08:34:28.344Z,37.01
2019-03-24T08:35:28.568Z,37.56
2019-03-24T08:36:29.629Z,35.73
2019-03-24T08:37:30.127Z,34.78
2019-03-24T08:38:30.632Z,34.32
2019-03-24T08:39:31.407Z,33.86
2019-03-24T08:40:32.403Z,33.95
2019-03-24T08:41:33.249Z,32.99
2019-03-24T08:42:34.029Z,32.6
2019-03-24T08:43:34.251Z,33.47
2019-03-24T08:44:35.034Z,34.8
2019-03-24T08:45:35.095Z,35.19
2019-03-24T08:46:35.882Z,33.92
2019-03-24T08:47:36.389Z,36.61
2019-03-24T08:48:41.888Z,36.41
2019-03-24T08:49:42.384Z,36.02
2019-03-24T08:50:43.350Z,35.83
2019-03-24T08:51:43.860Z,37.26
2019-03-24T08:52:44.651Z,37.35
2019-03-24T08:53:45.428Z,37.35
2019-03-24T08:54:45.939Z,38.2
2019-03-24T08:55:46.438Z,39.14
2019-03-24T08:56:46.943Z,40.28
2019-03-24T08:57:47.446Z,40.55
2019-03-24T08:58:48.222Z,40.95
2019-03-24T08:59:48.727Z,40.58
2019-03-24T09:00:32.194Z,40.7
2019-03-24T09:01:32.020Z,38.59
2019-03-24T09:02:33.079Z,39.26
2019-03-24T09:03:34.060Z,38.39
2019-03-24T09:04:34.837Z,39.54
2019-03-24T09:05:35.340Z,38.02
2019-03-24T09:06:35.862Z,36.11
2019-03-24T09:07:36.362Z,35.93
2019-03-24T09:08:36.872Z,35.94
2019-03-24T09:09:37.373Z,34.7
2019-03-24T09:10:38.155Z,34.5
2019-03-24T09:11:39.118Z,35.48
2019-03-24T09:12:39.626Z,37.39
2019-03-24T09:13:40.683Z,37.29
2019-03-24T09:14:40.907Z,36.04
2019-03-24T09:15:44.219Z,36.33
2019-03-24T09:16:44.744Z,36.43
2019-03-24T09:17:46.319Z,36.71
2019-03-24T09:18:54.231Z,37.18
2019-03-24T09:18:57.022Z,37.37
2019-03-24T09:19:57.732Z,39.78
2019-03-24T09:20:58.787Z,39.56
2019-03-24T09:21:59.574Z,39.66
2019-03-24T09:23:00.358Z,39.56
2019-03-24T09:24:00.861Z,39.18
2019-03-24T09:25:01.652Z,39.01
2019-03-24T09:26:02.720Z,38.33
2019-03-24T09:27:03.499Z,37.48
2019-03-24T09:28:03.831Z,37.39
2019-03-24T09:29:05.208Z,38.35
2019-03-24T09:30:05.987Z,35.46
2019-03-24T09:31:06.797Z,37.29
2019-03-24T09:32:07.577Z,35.94
2019-03-24T09:33:08.139Z,35.36
2019-03-24T09:34:08.975Z,34.78
2019-03-24T09:35:09.216Z,35.19
2019-03-24T09:36:09.439Z,36.93
2019-03-24T09:37:10.774Z,35.48
2019-03-24T09:38:11.562Z,35.21
2019-03-24T09:39:11.337Z,35.59
2019-03-24T09:40:12.099Z,37.19
2019-03-24T09:41:12.884Z,36.91
2019-03-24T09:42:13.666Z,37.1
2019-03-24T09:43:14.448Z,36.99
2019-03-24T09:44:14.680Z,37.96
2019-03-24T09:45:15.183Z,38.37
2019-03-24T09:46:15.410Z,35.77
2019-03-24T09:47:16.749Z,35.86
2019-03-24T09:48:16.971Z,35.21
2019-03-24T09:49:17.204Z,35.52
2019-03-24T09:50:17.608Z,35.11
2019-03-24T09:51:21.376Z,35.21
2019-03-24T09:52:19.155Z,35.78
2019-03-24T09:53:19.384Z,37.48
2019-03-24T09:54:20.720Z,36.63
2019-03-24T09:55:20.969Z,37.48
2019-03-24T09:56:21.501Z,37.39
2019-03-24T09:57:22.835Z,36.81
2019-03-24T09:58:22.900Z,36.54
2019-03-24T09:59:23.683Z,36.46
2019-03-24T10:00:24.246Z,36.65
2019-03-24T10:01:24.471Z,36.17
2019-03-24T10:02:25.317Z,35.78
2019-03-24T10:03:25.540Z,35.69
2019-03-24T10:04:26.317Z,35.4
2019-03-24T10:05:26.818Z,37.62
2019-03-24T10:06:27.881Z,36
2019-03-24T10:07:28.660Z,36.01
2019-03-24T10:08:29.451Z,37.25
2019-03-24T10:09:29.955Z,37.27
2019-03-24T10:10:30.676Z,37.29
2019-03-24T10:11:31.467Z,37.12
2019-03-24T10:12:31.968Z,33.55
2019-03-24T10:13:32.751Z,33.65
2019-03-24T10:14:33.254Z,34.54
2019-03-24T10:15:33.760Z,33.57
2019-03-24T10:16:34.096Z,33.1
2019-03-24T10:17:34.872Z,33.1
2019-03-24T10:18:35.949Z,33.39
2019-03-24T10:19:36.449Z,32.92
2019-03-24T10:20:37.153Z,33.39
2019-03-24T10:21:38.213Z,32.62
2019-03-24T10:22:39.008Z,32.91
2019-03-24T10:23:39.791Z,33.57
2019-03-24T10:24:40.017Z,32.7
2019-03-24T10:25:40.298Z,32.59
2019-03-24T10:26:40.806Z,33.55
2019-03-24T10:27:41.881Z,34.02
2019-03-24T10:28:42.668Z,35.37
2019-03-24T10:29:43.170Z,34.12
2019-03-24T10:30:43.716Z,34.79
2019-03-24T10:31:44.502Z,34.5
2019-03-24T10:32:45.285Z,34.21
2019-03-24T10:33:46.346Z,34.2
2019-03-24T10:34:46.403Z,34.7
2019-03-24T10:35:46.907Z,35.66
2019-03-24T10:36:47.728Z,34.13
2019-03-24T10:37:48.228Z,32.79
2019-03-24T10:38:49.009Z,33.2
2019-03-24T10:39:49.069Z,32.52
2019-03-24T10:40:31.766Z,33.95
2019-03-24T10:41:32.040Z,33.57
2019-03-24T10:42:32.880Z,33.45
2019-03-24T10:43:33.661Z,34.33
2019-03-24T10:44:34.444Z,36.07
2019-03-24T10:45:35.226Z,36.07
2019-03-24T10:46:36.289Z,35.39
2019-03-24T10:47:37.366Z,34.52
2019-03-24T10:48:37.595Z,33.07
2019-03-24T10:49:38.663Z,34.23
2019-03-24T10:50:39.168Z,33.55
2019-03-24T10:51:40.413Z,34.25
2019-03-24T10:52:40.925Z,33.47
2019-03-24T10:53:41.985Z,33.67
2019-03-24T10:54:42.758Z,33.94
2019-03-24T10:55:43.262Z,33.65
2019-03-24T10:56:44.047Z,35.06
2019-03-24T10:57:44.834Z,35.08
2019-03-24T10:58:45.342Z,34.68
2019-03-24T10:59:46.120Z,34.02
2019-03-24T11:00:46.624Z,34.41
2019-03-24T11:01:47.718Z,34.68
2019-03-24T11:02:49.065Z,34.66
2019-03-24T11:03:49.289Z,33.98
2019-03-24T11:04:49.790Z,35.05
2019-03-24T11:05:50.025Z,34.68
2019-03-24T11:06:50.260Z,34.58
2019-03-24T11:07:50.490Z,35.34
2019-03-24T11:08:50.991Z,34.68
2019-03-24T11:09:52.055Z,34.79
2019-03-24T11:10:52.572Z,34.79
2019-03-24T11:11:53.536Z,35.49
2019-03-24T11:12:53.763Z,32.51
2019-03-24T11:13:53.987Z,35.41
2019-03-24T11:14:54.812Z,34.27
2019-03-24T11:15:55.088Z,35.23
2019-03-24T11:16:55.869Z,33.2
2019-03-24T11:17:56.375Z,32.24
2019-03-24T11:18:56.603Z,31.26
2019-03-24T11:19:57.386Z,30.68
2019-03-24T11:20:57.609Z,32.7
2019-03-24T11:21:58.134Z,31.63
2019-03-24T11:22:59.198Z,32.76
2019-03-24T11:23:59.421Z,33.36
2019-03-24T11:24:59.647Z,32.87
2019-03-24T11:26:00.095Z,33.07
2019-03-24T11:27:00.874Z,32.21
2019-03-24T11:28:01.380Z,30.86
2019-03-24T11:29:02.185Z,30.66
2019-03-24T11:30:03.244Z,31.34
2019-03-24T11:31:04.302Z,30.36
2019-03-24T11:32:04.543Z,31.22
2019-03-24T11:33:05.895Z,31.6
2019-03-24T11:34:06.136Z,31.68
2019-03-24T11:35:06.918Z,31.98
2019-03-24T11:36:07.442Z,31.78
2019-03-24T11:37:08.784Z,32.75
2019-03-24T11:38:09.555Z,32.17
2019-03-24T11:39:10.058Z,30.43
2019-03-24T11:40:11.447Z,29.94
2019-03-24T11:41:11.965Z,32.36
2019-03-24T11:42:13.210Z,32.07
2019-03-24T11:43:13.437Z,34.21
2019-03-24T11:44:14.506Z,31.7
2019-03-24T11:45:15.283Z,30.75
2019-03-24T11:46:16.342Z,28.81
2019-03-24T11:47:27.769Z,30.36
2019-03-24T11:48:27.740Z,28.62
2019-03-24T11:49:29.093Z,28.04
2019-03-24T11:50:29.657Z,28.04
2019-03-24T11:51:30.439Z,27.56
2019-03-24T11:52:30.672Z,31.13
2019-03-24T11:53:31.168Z,30.17
2019-03-24T11:54:31.959Z,30.18
2019-03-24T11:55:32.465Z,31.63
2019-03-24T11:56:32.984Z,32.99
2019-03-24T11:57:33.763Z,31.81
2019-03-24T11:58:34.858Z,29.3
2019-03-24T11:59:34.872Z,28.89
2019-03-24T12:00:35.652Z,28.98
2019-03-24T12:01:39.586Z,29.83
2019-03-24T12:02:40.091Z,30.01
2019-03-24T12:03:40.868Z,30.67
2019-03-24T12:04:41.369Z,31.45
2019-03-24T12:05:42.185Z,30.58
2019-03-24T12:06:42.688Z,32.21
2019-03-24T12:07:43.494Z,32.7
2019-03-24T12:08:44.646Z,31.63
2019-03-24T12:09:44.872Z,33.76
2019-03-24T12:10:45.385Z,32.99
2019-03-24T12:11:45.897Z,32.99
2019-03-24T12:12:46.405Z,33.37
2019-03-24T12:13:47.463Z,33.66
2019-03-24T12:14:47.972Z,33.36
2019-03-24T12:15:48.487Z,34.05
2019-03-24T12:16:48.717Z,36.07
2019-03-24T12:17:49.812Z,37.31
2019-03-24T12:18:49.783Z,36.94
2019-03-24T12:19:57.869Z,35.52
2019-03-24T12:20:00.326Z,35.72
2019-03-24T12:21:01.149Z,34.76
2019-03-24T12:22:01.380Z,36.77
2019-03-24T12:23:02.722Z,35.34
2019-03-24T12:24:03.066Z,31.68
2019-03-24T12:25:03.846Z,31.86
2019-03-24T12:26:04.625Z,32.44
2019-03-24T12:27:05.178Z,32.52
2019-03-24T12:28:05.424Z,33.48
2019-03-24T12:29:05.644Z,33.47
2019-03-24T12:30:06.145Z,35.22
2019-03-24T12:31:07.232Z,36
2019-03-24T12:32:08.293Z,34.36
2019-03-24T12:33:08.565Z,33.58
2019-03-24T12:34:09.357Z,35.63
2019-03-24T12:35:09.860Z,35.72
2019-03-24T12:36:10.362Z,35.72
2019-03-24T12:37:10.865Z,35.16
2019-03-24T12:38:11.691Z,35.55
2019-03-24T12:39:12.190Z,34.6
2019-03-24T12:40:12.969Z,31.52
2019-03-24T12:41:13.683Z,30.73
2019-03-24T12:42:14.186Z,30.44
2019-03-24T12:43:20.467Z,30.82
2019-03-24T12:43:25.412Z,30.51
2019-03-24T12:44:25.991Z,31.86
2019-03-24T12:45:26.504Z,32.24
2019-03-24T12:46:27.046Z,32.91
2019-03-24T12:47:28.115Z,32.62
2019-03-24T12:48:29.252Z,33.95
2019-03-24T12:49:29.544Z,33.94
2019-03-24T12:50:37.561Z,34.42
2019-03-24T12:50:39.928Z,34.7
2019-03-24T12:51:41.204Z,36.83
2019-03-24T12:52:41.432Z,36.85
2019-03-24T12:53:42.232Z,33.39
2019-03-24T12:54:43.290Z,33.39
2019-03-24T12:55:44.070Z,33.97
2019-03-24T12:56:44.577Z,35.52
2019-03-24T12:57:45.365Z,37.08
2019-03-24T12:58:46.439Z,34.56
2019-03-24T12:59:47.232Z,34.58